Scroll down
FLIGHT INFORMATION
Ryanair

RYR8314

At Arrival Gate

EINN
 EIDW
DATE: 2020-12-08
GATE:  -
GATE DEPARTURE: 08:05
TAKEOFF: 08:18
DATE: 2020-12-08
GATE:  -
LANDING: 08:59
GATE ARRIVAL: 09:08
FLIGHT DATA
Crew: 
Speed: 
354 kts
Altitude: 
13,005 ft
Stage Length: 
105.1 nm
Block Time: 
1 hrs
Flight Time: 
0.7 hrs
Fuel Used: 
4,589 lb
Cleared Route: EINN TOMTO TORLU OSGAR EIDW
TRACK DATA
50,000 ft 1,000 kts
AIRCRAFT INFO AND CUMULATIVE STATS
Aircraft Type: 
B738BW
Registration: 
SELCAL: 
MSN/LN: 
44741 / 5891
Operator: 
Total Flights: 
4
Total Block Time: 
7.1 hrs
Total Flight Time: 
6.2 hrs
Total Fuel Time: 
37,416 lb
DATALINK LOG | Newest first | Current as of: 2021-04-10 14:35:29
LABEL SEQUENCE CONTENT Dn/Up
QD160209:08 7.1▼ Dn
QC065308:59▼ Dn
2U2611EIDW 060830Z 27007KT 0500 R16/0750N R28L/1000N R10R/0750D FZFG FEW001 SCT002 M03/M03 Q1004 R10R/190095 R16/190095 NOSIG▲ Up
2S1422EIDW▼ Dn
5U2100EIDW 060830Z 27007KT 0500 R16/0750N R28L/1000N R10R/0750D FZFG FEW001 SCT002 M03/M03 Q1004 R10R/190095 R16/190095 NOSIG▲ Up
5S0700EIDW▼ Dn
QB045808:18▼ Dn
QA495008:05 11.7▼ Dn
A33941NO MATCHING FLIGHT DATA AVAILABLE FROM ANSP▲ Up
B33941EINN EIDW H ▼ Dn
Q03840[LINK ACK]▲ Up
Q03840[LINK TEST]▼ Dn


AIRCRAFT HISTORY
FLIGHT DATE FLIGHT NO. ORIGIN DESTINATION CLEARED ROUTE BLOCK TIME FLIGHT TIME FUEL USED PILOT
2020-12-12RYR4324EGNT LFPO EGNT GIRLI NATEB AGPED UNTAL BAVDO ERKIT USEKA ODNEK MITSO RIMTO BATLI POL LISTO HON KIDLI DIGUT CPT VAPID GWC SITET ETRAT DVL LGL BOBSA LFPO1.8 hrs1.5 hrs9,183 lbMike Dryden
2020-12-08RYR5398EIDW EGNT EIDW LIFFY RULAV ABGEP ALAVA MALUD WAL ASMIM BARTN SONEX DENBY POL EGNT1 hrs0.9 hrs6,096 lbMike Dryden
2020-12-08RYR8314EINN EIDW EINN TOMTO TORLU OSGAR EIDW1 hrs0.7 hrs4,589 lbMike Dryden
2020-12-04RYR1649LIRA EINN LIRA GILIO ELB DOBIM GIRAG AKUTI BABED PIGOS BARSO OKTET GIPNO BULOL IDAVO ARDOL BAGBI SIZZA CHABY LAULY BRY CLM UTELA KOPOR SOMIL NITAR VESAN RATUK SOVAT SANDY BIG GOXUL LINDY NORRY CPT KENET GAVGO DEZZU DIKAS LUFTU STU SLANY WTDNB TIPUR EINN3.3 hrs3.1 hrs17,547 lbMike Dryden